Tiempo atmosférico en la estación meteorológica de Martinet, Lleida (1038 m.)



Fecha
DESCASC
Temp. máxima en grados centígrados (hora)
DESCASC
Temp. mínima en grados centígrados (hora)
DESCASC
Temp. media en grados centígrados
DESCASC
Racha de viento máxima en m/sg (hora)
DESCASC
Velocidad máxima media en intervalos de 10 minutos(hora)
DESCASC
Precipitaciones diarias en mm
DESCASC
Precipitaciones de 00:00 a 06:00 en mm
DESCASC
Precipitaciones de 06:00 a 12:00 en mm
DESCASC
Precipitaciones de 12:00 a 18:00 en mm
DESCASC
Precipitaciones de 18:00 a 24:00 en mm
DESCASC
16-01-2020 12.8 (14:50) -6.9 (09:00) 3 8.33 (15:40) 4.17 (16:20) 0 0 0 0 0
15-01-2020 10 (15:50) -7.9 (08:20) 1 6.39 (13:50) 3.61 (13:50) 0 0 0 0 0
14-01-2020 12.8 (15:10) -6.3 (05:30) 3.3 6.67 (16:30) 3.33 (16:10) 0 0 0 0 0
13-01-2020 8.5 (15:20) -7.9 (07:30) 0.3 3.61 (07:10) 1.94 (15:40) 0 0 0 0 0
12-01-2020 12.1 (15:20) -8.6 (-00:0) 1.8 5.83 (15:20) 3.06 (15:00) 0 0 0 0 0
11-01-2020 12.8 (14:40) -6 (-00:0) 3.4 4.17 (14:10) 2.22 (14:00) 0 0 0 0 0
10-01-2020 11.4 (15:00) -1.2 (-00:0) 5.1 6.67 (15:50) 3.06 (13:30) 0 0 0 0 0
09-01-2020 13 (14:50) -3.9 (-00:0) 4.5 7.5 (15:30) 3.89 (15:00) 0 0 0 0 0
08-01-2020 14.5 (15:00) -2 (-00:0) 6.3 7.22 (14:40) 3.61 (12:50) 0 0 0 0 0
07-01-2020 13.7 (15:30) -5.2 (-00:0) 4.3 4.44 (11:40) 1.94 (11:40) 0 0 0 0 0
06-01-2020 13.1 (15:10) -5.1 (-00:0) 4 3.89 (15:40) 2.22 (15:50) 0 0 0 0 0
05-01-2020 16.9 (15:40) -5.1 (-00:0) 5.9 4.44 (15:10) 2.5 (15:10) 0 0 0 0 0
04-01-2020 12.7 (15:30) -5.3 (-00:0) 3.7 3.06 (04:40) 1.67 (16:50) 0 0 0 0 0
03-01-2020 9.7 (15:10) -4 (-00:0) 2.8 2.78 (10:20) 1.39 (10:20) 0 0 0 0 0
02-01-2020 12.8 (14:50) -5 (-00:0) 3.9 3.06 (12:40) 1.67 (13:20) 0 0 0 0 0
01-01-2020 11.8 (14:10) -5.6 (-00:0) 3.1 2.5 (03:30) 1.11 (04:50) 0 0 0 0 0
31-12-2019 11.5 (15:00) -4.1 (-00:0) 3.7 5.56 (13:40) 3.61 (14:10) 0 0 0 0 0
30-12-2019 11.1 (15:20) -4.7 (-00:0) 3.2 6.11 (14:50) 3.61 (14:50) 0 0 0 0 0
29-12-2019 11.9 (14:30) -4.9 (-00:0) 3.5 4.17 (15:00) 2.5 (15:00) 0 0 0 0 0
28-12-2019 15.2 (15:10) -2.7 (-00:0) 6.2 3.89 (17:20) 1.94 (15:30) 0 0 0 0 0
27-12-2019 11.9 (15:20) -3.9 (-00:0) 4 5.83 (09:30) 2.78 (09:30) 0 0 0 0 0
26-12-2019 15.3 (14:40) -1.6 (-00:0) 6.9 3.89 (14:00) 2.22 (15:00) 0 0 0 0 0
25-12-2019 13.9 (15:20) -1.9 (-00:0) 6 3.33 (11:10) 1.67 (16:30) 0 0 0 0 0
24-12-2019 11.9 (14:20) -2.1 (-00:0) 4.9 4.44 (08:30) 2.22 (08:30) 0 0 0 0 0
23-12-2019 12.8 (14:50) -1.2 (-00:0) 5.8 6.39 (14:20) 2.78 (15:00) 0 0 0 0 0
22-12-2019 10.7 (13:10) 2.7 (00:00) 6.7 13.33 (12:20) 7.5 (12:40) 1.8 1.4 0 0.4 0
21-12-2019 10 (12:40) 4.8 (00:00) 7.4 15 (20:50) 6.11 (21:50) 14 1.8 0 5.4 6.8

Gráficas

Temp. máximas Temp. mínimas Temp. medias Precipitaciones Rachas de viento máximas Velocidades máximas media en intervalos de 10 minutos

Datos horarios

Fecha y hora oficial Temperatura (ºC) Velocidad del viento (km/h) Dirección del viento Racha (km/h) Dirección de racha Precipitación (mm) Presión (hPa) Tendencia (hPa) Humedad (%)
2020-01-19 23:00:00 -0.3 10 Este 35 Este 0 -- -- 47
2020-01-19 22:00:00 -0.2 18 Este 39 Nordeste 0 -- -- 45
2020-01-19 21:00:00 0.2 14 Nordeste 36 Este 0 -- -- 44
2020-01-19 20:00:00 0.1 13 Este 41 Nordeste 0 -- -- 45
2020-01-19 19:00:00 0.5 8 Este 33 Este 0 -- -- 45
2020-01-19 18:00:00 1.9 17 Nordeste 37 Este 0 -- -- 35
2020-01-19 17:00:00 3.5 5 Norte 47 Este 0 -- -- 31
2020-01-19 16:00:00 5.1 12 Este 51 Este 0 -- -- 29
2020-01-19 15:00:00 5.4 20 Este 60 Nordeste 0 -- -- 33
2020-01-19 14:00:00 4.4 29 Este 65 Nordeste 0 -- -- 41
2020-01-19 13:00:00 4.2 23 Este 62 Este 0 -- -- 45
2020-01-19 12:00:00 5 29 Este 53 Este 0 -- -- 45
2020-01-19 11:00:00 4.1 20 Este 52 Este 0 -- -- 54
2020-01-19 10:00:00 2.6 18 Este 40 Este 0 -- -- 59
2020-01-19 09:00:00 1.8 15 Este 40 Este 0 -- -- 69
2020-01-19 08:00:00 0.4 3 Norte 9 Nordeste 0 -- -- 82
2020-01-19 07:00:00 0.7 7 Este 22 Este 0 -- -- 83
2020-01-19 06:00:00 -1.2 3 Sudeste 13 Nordeste 0 -- -- 84
2020-01-19 05:00:00 -1.1 4 Oeste 24 Este 0 -- -- 78
2020-01-19 04:00:00 -1.7 3 Sudeste 8 Sudeste 0 -- -- 83
2020-01-19 03:00:00 -2.2 0 Calma 8 Norte 0 -- -- 86
2020-01-19 02:00:00 -2.7 0 Calma 6 Sudeste 0 -- -- 85
2020-01-19 01:00:00 -2.1 3 Este 8 Nordeste 0 -- -- 83
2020-01-19 00:00:00 -1.8 0 Calma 5 Nordeste 0 -- -- 83
2020-01-18 23:00:00 -1.6 0 Calma 5 Sudeste 0 -- -- 79
2020-01-18 22:00:00 -1.4 0 Calma 6 Norte 0 -- -- 75
2020-01-18 21:00:00 -0.7 2 Nordeste 8 Nordeste 0 -- -- 71
2020-01-18 20:00:00 0.6 3 Oeste 8 Noroeste 0 -- -- 64
2020-01-18 19:00:00 2.4 3 Oeste 10 Oeste 0 -- -- 57
2020-01-18 18:00:00 4.2 7 Oeste 14 Oeste 0 -- -- 49
2020-01-18 17:00:00 7.4 8 Oeste 20 Oeste 0 -- -- 40
2020-01-18 16:00:00 9.3 10 Oeste 22 Oeste 0 -- -- 35
2020-01-18 15:00:00 9.5 8 Oeste 16 Noroeste 0 -- -- 36
2020-01-18 14:00:00 8 10 Oeste 16 Oeste 0 -- -- 45
2020-01-18 13:00:00 5 8 Oeste 18 Oeste 0 -- -- 53
2020-01-18 12:00:00 1.5 2 Sudoeste 5 Sudoeste 0 -- -- 67
2020-01-18 11:00:00 -0.4 3 Sur 19 Este 0 -- -- 74
2020-01-18 10:00:00 -1.3 15 Este 24 Este 0 -- -- 76
2020-01-18 09:00:00 -3.2 2 Sur 6 Sudeste 0 -- -- 90
2020-01-18 08:00:00 -3.5 2 Este 5 Nordeste 0 -- -- 91
2020-01-18 07:00:00 -4 3 Nordeste 6 Norte 0 -- -- 91
2020-01-18 06:00:00 -4.7 0 Calma 8 Este 0 -- -- 93
2020-01-18 05:00:00 -4.7 3 Sudeste 7 Sudeste 0 -- -- 92
2020-01-18 04:00:00 -4.1 0 Calma 4 Nordeste 0 -- -- 86
2020-01-18 03:00:00 -3.5 2 Noroeste 6 Norte 0 -- -- 81
2020-01-18 02:00:00 -3.8 3 Nordeste 7 Norte 0 -- -- 88
2020-01-18 01:00:00 -3.5 0 Calma 6 Este 0 -- -- 89
2020-01-18 00:00:00 -2.8 2 Norte 9 Norte 0 -- -- 89
2020-01-17 23:00:00 -1.8 4 Nordeste 7 Norte 0 -- -- 83
2020-01-17 22:00:00 -0.8 2 Noroeste 16 Este 0 -- -- 81
2020-01-17 21:00:00 0.8 7 Nordeste 25 Sur 0 -- -- 78
2020-01-17 20:00:00 1.5 8 Sudoeste 19 Sudeste 0 -- -- 73
2020-01-17 19:00:00 1.2 3 Noroeste 11 Norte 0 -- -- 88
2020-01-17 18:00:00 2.5 3 Noroeste 23 Nordeste 0 -- -- 89
2020-01-17 17:00:00 3.6 14 Nordeste 22 Nordeste 0.8 -- -- 86
2020-01-17 16:00:00 6.3 12 Norte 51 Sudoeste 1.2 -- -- 70
2020-01-17 15:00:00 9.7 16 Sudoeste 43 Sudoeste 0 -- -- 50
2020-01-17 14:00:00 11.7 21 Sudoeste 48 Oeste 0 -- -- 47
2020-01-17 13:00:00 11.2 13 Oeste 36 Oeste 0 -- -- 54
2020-01-17 12:00:00 8.3 10 Oeste 19 Oeste 0 -- -- 67
2020-01-17 11:00:00 3.9 3 Sudoeste 6 Sudoeste 0 -- -- 82
2020-01-17 10:00:00 1.3 0 Calma 5 Nordeste 0 -- -- 91
2020-01-17 09:00:00 -0.2 0 Calma 3 Nordeste 0 -- -- 95
2020-01-17 08:00:00 0.2 0 Calma 8 Oeste 0 -- -- 93
2020-01-17 07:00:00 1 3 Noroeste 7 Oeste 0 -- -- 89
2020-01-17 06:00:00 1.7 4 Oeste 10 Norte 0 -- -- 87
2020-01-17 05:00:00 1.8 3 Noroeste 8 Norte 0 -- -- 90
2020-01-17 04:00:00 2 3 Noroeste 14 Oeste 0 -- -- 83
2020-01-17 03:00:00 1.9 3 Oeste 11 Noroeste 0 -- -- 83
2020-01-17 02:00:00 1.6 3 Norte 6 Nordeste 0 -- -- 86
2020-01-17 01:00:00 1.2 2 Noroeste 8 Noroeste 0 -- -- 88
2020-01-17 00:00:00 -0.1 0 Calma 5 Norte 0 -- -- 88
2020-01-16 23:00:00 0.8 0 Calma 4 Nordeste 0 -- -- 82
2020-01-16 22:00:00 1.7 0 Calma 5 Norte 0 -- -- 78
2020-01-16 21:00:00 2.5 0 Calma 4 Norte 0 -- -- 73
2020-01-16 20:00:00 3.9 0 Calma 4 Sudoeste 0 -- -- 68
2020-01-16 19:00:00 5.6 2 Noroeste 11 Noroeste 0 -- -- 62
2020-01-16 18:00:00 7.5 4 Oeste 19 Oeste 0 -- -- 55
2020-01-16 17:00:00 10.2 9 Oeste 27 Oeste 0 -- -- 45
2020-01-16 16:00:00 12 14 Oeste 30 Oeste 0 -- -- 38
2020-01-16 15:00:00 12.7 12 Oeste 25 Oeste 0 -- -- 37
2020-01-16 14:00:00 10.5 6 Sudoeste 17 Oeste 0 -- -- 41
2020-01-16 13:00:00 7.2 3 Sur 9 Sur 0 -- -- 48
2020-01-16 12:00:00 3.2 5 Sur 10 Sudeste 0 -- -- 60
2020-01-16 11:00:00 -0.9 4 Sudeste 7 Sudeste 0 -- -- 78
2020-01-16 10:00:00 -4.7 3 Sudeste 6 Sudeste 0 -- -- 91
2020-01-16 09:00:00 -6.9 0 Calma 6 Norte 0 -- -- 92
2020-01-16 08:00:00 -5.9 0 Calma 4 Oeste 0 -- -- 93
2020-01-16 07:00:00 -6.2 2 Sur 6 Nordeste 0 -- -- 91
2020-01-16 06:00:00 -6.1 0 Calma 7 Este 0 -- -- 91
2020-01-16 05:00:00 -4.9 2 Nordeste 5 Nordeste 0 -- -- 89
2020-01-16 04:00:00 -4.1 2 Este 4 Este 0 -- -- 86
2020-01-16 03:00:00 -4.3 2 Nordeste 6 Sudeste 0 -- -- 86
2020-01-16 02:00:00 -3.4 3 Nordeste 5 Norte 0 -- -- 82
2020-01-16 01:00:00 -3.3 0 Calma 6 Norte 0 -- -- 83
2020-01-16 00:00:00 -2.4 0 Calma 8 Norte 0 -- -- 78
2020-01-15 23:00:00 -2.3 2 Nordeste 7 Sudeste 0 -- -- 78
2020-01-15 22:00:00 -1.4 3 Sudeste 6 Este 0 -- -- 74
2020-01-15 21:00:00 -0.2 3 Oeste 6 Norte 0 -- -- 68
2020-01-15 20:00:00 0.6 0 Calma 4 Sudoeste 0 -- -- 66
2020-01-15 19:00:00 2.1 0 Calma 9 Norte 0 -- -- 59
2020-01-15 18:00:00 4.6 0 Calma 4 Oeste 0 -- -- 52
2020-01-15 17:00:00 8.2 3 Sudeste 6 Sur 0 -- -- 41
2020-01-15 16:00:00 10 5 Sudoeste 19 Este 0 -- -- 35
2020-01-15 15:00:00 8.8 12 Este 19 Este 0 -- -- 36
2020-01-15 14:00:00 6.5 8 Este 23 Este 0 -- -- 42
2020-01-15 13:00:00 4.3 4 Sudeste 9 Sudeste 0 -- -- 52
2020-01-15 12:00:00 -0.1 2 Sudeste 6 Sudeste 0 -- -- 67
2020-01-15 11:00:00 -2.3 2 Sudeste 8 Este 0 -- -- 75
2020-01-15 10:00:00 -5.5 3 Sudeste 6 Sudeste 0 -- -- 86
2020-01-15 09:00:00 -7.1 2 Noroeste 5 Sudeste 0 -- -- 90
2020-01-15 08:00:00 -7.8 2 Este 5 Sudeste 0 -- -- 89
2020-01-15 07:00:00 -6.7 2 Oeste 5 Nordeste 0 -- -- 82
2020-01-15 06:00:00 -6.4 3 Nordeste 5 Sudeste 0 -- -- 85
2020-01-15 05:00:00 -6.4 3 Sur 8 Sudeste 0 -- -- 85
2020-01-15 04:00:00 -5.5 3 Nordeste 4 Nordeste 0 -- -- 78
2020-01-15 03:00:00 -5.4 0 Calma 4 Norte 0 -- -- 78
2020-01-15 02:00:00 -4.9 2 Oeste 4 Norte 0 -- -- 76
2020-01-15 01:00:00 -3.9 3 Nordeste 5 Norte 0 -- -- 71
2020-01-15 00:00:00 -3.4 0 Calma 4 Norte 0 -- -- 70
2020-01-14 23:00:00 -2.5 3 Nordeste 4 Norte 0 -- -- 66
2020-01-14 22:00:00 -1.7 0 Calma 5 Este 0 -- -- 62
2020-01-14 21:00:00 -0.3 3 Nordeste 5 Nordeste 0 -- -- 58
2020-01-14 20:00:00 1.5 0 Calma 6 Oeste 0 -- -- 53
2020-01-14 19:00:00 3.9 4 Noroeste 10 Norte 0 -- -- 48
2020-01-14 18:00:00 5.8 6 Noroeste 13 Oeste 0 -- -- 42
2020-01-14 17:00:00 9.5 6 Noroeste 24 Oeste 0 -- -- 32
2020-01-14 16:00:00 12 10 Oeste 20 Oeste 0 -- -- 27
2020-01-14 15:00:00 12.6 9 Oeste 19 Oeste 0 -- -- 26
2020-01-14 14:00:00 10.9 5 Oeste 12 Noroeste 0 -- -- 30
2020-01-14 13:00:00 8.1 3 Sudeste 10 Este 0 -- -- 36
2020-01-14 12:00:00 3.9 4 Este 10 Este 0 -- -- 50
2020-01-14 11:00:00 0.2 3 Sudeste 11 Este 0 -- -- 65
2020-01-14 10:00:00 -3.8 3 Sudeste 5 Sudeste 0 -- -- 82
2020-01-14 09:00:00 -6.1 0 Calma 6 Este 0 -- -- 88
2020-01-14 08:00:00 -5.6 2 Este 4 Sur 0 -- -- 85
2020-01-14 07:00:00 -5.4 0 Calma 5 Sudeste 0 -- -- 86
2020-01-14 06:00:00 -6 0 Calma 6 Este 0 -- -- 88
2020-01-14 05:00:00 -6 2 Sudoeste 5 Norte 0 -- -- 85
2020-01-14 04:00:00 -5.8 0 Calma 8 Sudeste 0 -- -- 85
2020-01-14 03:00:00 -5.6 0 Calma 6 Norte 0 -- -- 82
2020-01-14 02:00:00 -5.1 2 Nordeste 4 Nordeste 0 -- -- 77
2020-01-14 01:00:00 -4.9 0 Calma 5 Norte 0 -- -- 77
2020-01-14 00:00:00 -4.1 3 Norte 4 Norte 0 -- -- 70
2020-01-13 23:00:00 -3.5 0 Calma 5 Norte 0 -- -- 69
2020-01-13 22:00:00 -3 0 Calma 5 Norte 0 -- -- 67
2020-01-13 21:00:00 -1.6 0 Calma 6 Noroeste 0 -- -- 63
2020-01-13 20:00:00 -0.5 2 Noroeste 10 Norte 0 -- -- 58
2020-01-13 19:00:00 1.2 3 Norte 12 Noroeste 0 -- -- 53
2020-01-13 18:00:00 3.7 5 Noroeste 9 Noroeste 0 -- -- 43
2020-01-13 17:00:00 5.8 6 Noroeste 12 Oeste 0 -- -- 36
2020-01-13 16:00:00 7.3 4 Noroeste 12 Noroeste 0 -- -- 34
2020-01-13 15:00:00 8.2 5 Noroeste 12 Oeste 0 -- -- 31
2020-01-13 14:00:00 7.3 4 Sudeste 8 Sudeste 0 -- -- 34
2020-01-13 13:00:00 4.2 4 Sur 12 Sudeste 0 -- -- 44
2020-01-13 12:00:00 1.5 5 Sudeste 10 Sudeste 0 -- -- 49
2020-01-13 11:00:00 -1.8 4 Sudeste 7 Sudeste 0 -- -- 68
2020-01-13 10:00:00 -5.4 0 Calma 5 Nordeste 0 -- -- 81
2020-01-13 09:00:00 -7.8 0 Calma 4 Este 0 -- -- 86
2020-01-13 08:00:00 -7.7 3 Este 13 Este 0 -- -- 85
2020-01-13 07:00:00 -7.5 5 Este 10 Este 0 -- -- 88
2020-01-13 06:00:00 -7.1 0 Calma 5 Sudeste 0 -- -- 82
2020-01-13 05:00:00 -6.6 3 Nordeste 5 Norte 0 -- -- 80
2020-01-13 04:00:00 -6 0 Calma 5 Este 0 -- -- 76
2020-01-13 03:00:00 -5.8 3 Nordeste 9 Nordeste 0 -- -- 80
2020-01-13 02:00:00 -5 0 Calma 5 Norte 0 -- -- 76
2020-01-13 01:00:00 -4.4 0 Calma 5 Nordeste 0 -- -- 69
2020-01-13 00:00:00 -3.6 0 Calma 6 Norte 0 -- -- 66
2020-01-12 23:00:00 -3.4 3 Oeste 5 Nordeste 0 -- -- 63
2020-01-12 22:00:00 -2.1 2 Sudeste 5 Nordeste 0 -- -- 61
2020-01-12 21:00:00 -1.1 2 Norte 7 Noroeste 0 -- -- 56
2020-01-12 20:00:00 0.5 4 Oeste 6 Oeste 0 -- -- 51
2020-01-12 19:00:00 2.4 3 Oeste 8 Oeste 0 -- -- 45
2020-01-12 18:00:00 4.5 5 Noroeste 14 Noroeste 0 -- -- 38
2020-01-12 17:00:00 7.8 6 Noroeste 17 Oeste 0 -- -- 28
2020-01-12 16:00:00 11.5 5 Oeste 21 Oeste 0 -- -- 24
2020-01-12 15:00:00 11.4 11 Oeste 18 Noroeste 0 -- -- 23
2020-01-12 14:00:00 10 8 Oeste 14 Oeste 0 -- -- 25
2020-01-12 13:00:00 7.3 3 Sudeste 6 Sur 0 -- -- 34
2020-01-12 12:00:00 2.4 4 Sudeste 8 Sudeste 0 -- -- 45
2020-01-12 11:00:00 -2.2 3 Sur 7 Sur 0 -- -- 63
2020-01-12 10:00:00 -5.7 2 Sudeste 8 Sudeste 0 -- -- 78
2020-01-12 09:00:00 -8.6 2 Este 5 Sudeste 0 -- -- 86
2020-01-12 08:00:00 -8.1 0 Calma 5 Norte 0 -- -- 82
2020-01-12 07:00:00 -7.9 3 Norte 8 Este 0 -- -- 81
2020-01-12 06:00:00 -7.2 2 Nordeste 5 Nordeste 0 -- -- 77
2020-01-12 05:00:00 -6.7 3 Este 6 Sudeste 0 -- -- 77
2020-01-12 04:00:00 -6.4 4 Sudeste 6 Sur 0 -- -- 78
2020-01-12 03:00:00 -5.6 2 Nordeste 6 Sudeste 0 -- -- 66
2020-01-12 02:00:00 -5.1 3 Este 8 Sudeste 0 -- -- 69
2020-01-12 01:00:00 -4.4 4 Este 11 Este 0 -- -- 66
2020-01-12 00:00:00 -3.8 2 Norte 4 Nordeste 0 -- -- 57
2020-01-11 23:00:00 -3.3 3 Nordeste 5 Norte 0 -- -- 59
2020-01-11 22:00:00 -2.1 3 Nordeste 6 Nordeste 0 -- -- 53
2020-01-11 21:00:00 -0.7 0 Calma 7 Nordeste 0 -- -- 47
2020-01-11 20:00:00 0.6 4 Nordeste 12 Norte 0 -- -- 44
2020-01-11 19:00:00 2.5 0 Calma 9 Noroeste 0 -- -- 39
2020-01-11 18:00:00 4.9 3 Oeste 13 Oeste 0 -- -- 35
2020-01-11 17:00:00 8.5 4 Sudoeste 9 Sudoeste 0 -- -- 28
2020-01-11 16:00:00 12.8 4 Sur 14 Este 0 -- -- 22
2020-01-11 15:00:00 12.6 6 Este 15 Este 0 -- -- 20
2020-01-11 14:00:00 11.4 8 Este 14 Este 0 -- -- 20
2020-01-11 13:00:00 9.3 3 Oeste 6 Sur 0 -- -- 30
2020-01-11 12:00:00 3.8 3 Sudeste 5 Sur 0 -- -- 48
2020-01-11 11:00:00 -0.2 0 Calma 5 Este 0 -- -- 63
2020-01-11 10:00:00 -3 2 Nordeste 8 Este 0 -- -- 76
2020-01-11 09:00:00 -5.8 3 Este 8 Este 0 -- -- 79
2020-01-11 08:00:00 -5.5 3 Este 9 Norte 0 -- -- 74
2020-01-11 07:00:00 -4.8 3 Nordeste 8 Norte 0 -- -- 72
2020-01-11 06:00:00 -5.1 3 Norte 6 Norte 0 -- -- 76
2020-01-11 05:00:00 -4.4 2 Sudoeste 6 Norte 0 -- -- 72
2020-01-11 04:00:00 -3.5 3 Este 9 Norte 0 -- -- 76
2020-01-11 03:00:00 -2.9 3 Norte 8 Nordeste 0 -- -- 70
2020-01-11 02:00:00 -2.6 4 Este 10 Norte 0 -- -- 75
2020-01-11 01:00:00 -1.7 3 Nordeste 14 Norte 0 -- -- 71
2020-01-11 00:00:00 -1.2 3 Oeste 12 Norte 0 -- -- 71
2020-01-10 23:00:00 -0.1 6 Norte 14 Norte 0 -- -- 68
2020-01-10 22:00:00 0.3 5 Nordeste 14 Norte 0 -- -- 69
2020-01-10 21:00:00 1 2 Nordeste 13 Noroeste 0 -- -- 68
2020-01-10 20:00:00 1.8 2 Sudoeste 10 Nordeste 0 -- -- 65
2020-01-10 19:00:00 3.7 5 Sur 14 Este 0 -- -- 58
2020-01-10 18:00:00 5.7 3 Nordeste 21 Norte 0 -- -- 47
2020-01-10 17:00:00 7.7 8 Norte 24 Nordeste 0 -- -- 42
2020-01-10 16:00:00 10.4 7 Norte 24 Nordeste 0 -- -- 37
2020-01-10 15:00:00 11.4 5 Sudeste 23 Nordeste 0 -- -- 36
2020-01-10 14:00:00 10.8 5 Este 22 Este 0 -- -- 36
2020-01-10 13:00:00 8.6 5 Sur 13 Este 0 -- -- 52
2020-01-10 12:00:00 5.2 5 Oeste 9 Oeste 0 -- -- 80
2020-01-10 11:00:00 3.5 3 Oeste 8 Norte 0 -- -- 92
2020-01-10 10:00:00 2.7 2 Oeste 6 Nordeste 0 -- -- 94
2020-01-10 09:00:00 2.1 2 Norte 5 Noroeste 0 -- -- 93
2020-01-10 08:00:00 2.4 4 Oeste 7 Sur 0 -- -- 91
2020-01-10 07:00:00 2.8 4 Sudeste 14 Sudoeste 0 -- -- 88
2020-01-10 06:00:00 2.9 2 Oeste 18 Este 0 -- -- 83
2020-01-10 05:00:00 1.5 2 Nordeste 6 Norte 0 -- -- 79
2020-01-10 04:00:00 1.4 0 Calma 8 Nordeste 0 -- -- 78
2020-01-10 03:00:00 1.4 4 Este 14 Este 0 -- -- 77
2020-01-10 02:00:00 0.9 4 Este 10 Este 0 -- -- 81
2020-01-10 01:00:00 0.3 3 Este 6 Sudeste 0 -- -- 83
2020-01-10 00:00:00 0.4 0 Calma 4 Nordeste 0 -- -- 79
2020-01-09 23:00:00 0.7 0 Calma 5 Sudeste 0 -- -- 78
2020-01-09 22:00:00 1.6 2 Noroeste 5 Oeste 0 -- -- 72
2020-01-09 21:00:00 2.4 4 Norte 8 Norte 0 -- -- 70
2020-01-09 20:00:00 4.5 2 Noroeste 10 Noroeste 0 -- -- 66
2020-01-09 19:00:00 5.9 4 Noroeste 11 Oeste 0 -- -- 62
2020-01-09 18:00:00 7.8 5 Oeste 16 Oeste 0 -- -- 52
2020-01-09 17:00:00 10.1 7 Oeste 23 Sudoeste 0 -- -- 43
2020-01-09 16:00:00 12.5 10 Sudoeste 27 Oeste 0 -- -- 39
2020-01-09 15:00:00 12.8 14 Oeste 26 Oeste 0 -- -- 39
2020-01-09 14:00:00 11.4 7 Oeste 14 Oeste 0 -- -- 51
2020-01-09 13:00:00 8.5 5 Sur 8 Sur 0 -- -- 62
2020-01-09 12:00:00 5.3 5 Sudeste 10 Sudeste 0 -- -- 74
2020-01-09 11:00:00 1.1 3 Sudeste 6 Sur 0 -- -- 91
2020-01-09 10:00:00 -1.7 3 Sudeste 7 Sudeste 0 -- -- 98
2020-01-09 09:00:00 -3.8 3 Sudeste 5 Sudeste 0 -- -- 97
2020-01-09 08:00:00 -3.1 0 Calma 4 Nordeste 0 -- -- 97
2020-01-09 07:00:00 -3.3 0 Calma 4 Nordeste 0 -- -- 97
2020-01-09 06:00:00 -3.1 2 Oeste 4 Sudeste 0 -- -- 96
2020-01-09 05:00:00 -2.6 0 Calma 5 Sudeste 0 -- -- 96
2020-01-09 04:00:00 -1.9 0 Calma 5 Norte 0 -- -- 95
2020-01-09 03:00:00 -1.7 0 Calma 3 Nordeste 0 -- -- 93
2020-01-09 02:00:00 -1.1 0 Calma 4 Nordeste 0 -- -- 93
2020-01-09 01:00:00 -0.4 0 Calma 3 Nordeste 0 -- -- 91
2020-01-09 00:00:00 0.3 0 Calma 5 Nordeste 0 -- -- 88
2020-01-08 23:00:00 1.2 0 Calma 5 Nordeste 0 -- -- 84
2020-01-08 22:00:00 2.2 2 Noroeste 6 Norte 0 -- -- 80
2020-01-08 21:00:00 3.3 0 Calma 9 Nordeste 0 -- -- 75
2020-01-08 20:00:00 5.3 0 Calma 10 Oeste 0 -- -- 66
2020-01-08 19:00:00 6.7 3 Noroeste 10 Oeste 0 -- -- 60
2020-01-08 18:00:00 8.8 4 Noroeste 10 Oeste 0 -- -- 52
2020-01-08 17:00:00 11.2 5 Oeste 21 Oeste 0 -- -- 41
2020-01-08 16:00:00 13 7 Oeste 24 Oeste 0 -- -- 38
2020-01-08 15:00:00 14.5 8 Oeste 26 Oeste 0 -- -- 36
2020-01-08 14:00:00 13.7 11 Oeste 24 Oeste 0 -- -- 38
2020-01-08 13:00:00 11.6 10 Oeste 21 Oeste 0 -- -- 46
2020-01-08 12:00:00 8.3 4 Sudoeste 7 Sur 0 -- -- 60
2020-01-08 11:00:00 3.9 0 Calma 6 Sur 0 -- -- 75
2020-01-08 10:00:00 0.9 0 Calma 5 Sudeste 0 -- -- 85
2020-01-08 09:00:00 -1.4 3 Nordeste 6 Este 0 -- -- 90
2020-01-08 08:00:00 -2 2 Sudeste 5 Sudeste 0 -- -- 89
2020-01-08 07:00:00 -1.4 0 Calma 7 Sudeste 0 -- -- 90
2020-01-08 06:00:00 -1 3 Este 6 Sudeste 0 -- -- 87
2020-01-08 05:00:00 -1 2 Este 8 Sudeste 0 -- -- 85
2020-01-08 04:00:00 -0.7 2 Este 6 Este 0 -- -- 86
2020-01-08 03:00:00 -1.1 2 Sur 7 Sudeste 0 -- -- 86
2020-01-08 02:00:00 -0.8 2 Este 6 Este 0 -- -- 82
2020-01-08 01:00:00 0.1 0 Calma 6 Nordeste 0 -- -- 79
2020-01-08 00:00:00 0.5 2 Sur 8 Nordeste 0 -- -- 77
2020-01-07 23:00:00 1.4 3 Nordeste 11 Norte 0 -- -- 75
2020-01-07 22:00:00 2.6 3 Este 7 Nordeste 0 -- -- 69
2020-01-07 21:00:00 3.3 4 Nordeste 6 Nordeste 0 -- -- 64
2020-01-07 20:00:00 3.4 3 Nordeste 14 Norte 0 -- -- 64
2020-01-07 19:00:00 4.5 3 Noroeste 14 Norte 0 -- -- 61
2020-01-07 18:00:00 7 3 Noroeste 11 Norte 0 -- -- 52
2020-01-07 17:00:00 10.1 6 Oeste 12 Noroeste 0 -- -- 46
2020-01-07 16:00:00 13 5 Este 14 Este 0 -- -- 35
2020-01-07 15:00:00 12.7 3 Sur 8 Sudeste 0 -- -- 36
2020-01-07 14:00:00 11 4 Sudeste 8 Sudeste 0 -- -- 41
2020-01-07 13:00:00 8.3 4 Sudeste 10 Sudeste 0 -- -- 49
2020-01-07 12:00:00 4.6 5 Sudeste 16 Este 0 -- -- 62
2020-01-07 11:00:00 0.4 4 Sudeste 8 Sudeste 0 -- -- 81
2020-01-07 10:00:00 -3.1 3 Sudeste 8 Sudeste 0 -- -- 91
2020-01-07 09:00:00 -5.1 3 Nordeste 6 Nordeste 0 -- -- 94
2020-01-07 08:00:00 -5.1 3 Este 9 Sudeste 0 -- -- 94
2020-01-07 07:00:00 -4.6 2 Este 6 Nordeste 0 -- -- 93
2020-01-07 06:00:00 -4.3 3 Este 6 Sudeste 0 -- -- 92
2020-01-07 05:00:00 -4.1 2 Sudeste 13 Este 0 -- -- 91
2020-01-07 04:00:00 -3.7 2 Sur 6 Este 0 -- -- 91
2020-01-07 03:00:00 -2.7 0 Calma 9 Nordeste 0 -- -- 88
2020-01-07 02:00:00 -3.1 4 Nordeste 7 Sudeste 0 -- -- 88
2020-01-07 01:00:00 -2.5 3 Este 6 Este 0 -- -- 88
2020-01-07 00:00:00 -2.1 2 Sur 6 Nordeste 0 -- -- 83
2020-01-06 23:00:00 -1.4 2 Sudoeste 7 Norte 0 -- -- 81
2020-01-06 22:00:00 -0.5 0 Calma 6 Nordeste 0 -- -- 77
2020-01-06 21:00:00 0.1 2 Noroeste 5 Sudeste 0 -- -- 74
2020-01-06 20:00:00 1.7 0 Calma 5 Norte 0 -- -- 67
2020-01-06 19:00:00 3.2 2 Oeste 5 Norte 0 -- -- 62
2020-01-06 18:00:00 5.1 2 Oeste 8 Noroeste 0 -- -- 55
2020-01-06 17:00:00 9 5 Oeste 9 Oeste 0 -- -- 37
2020-01-06 16:00:00 12.4 5 Sudoeste 14 Oeste 0 -- -- 30
2020-01-06 15:00:00 12.9 4 Sur 7 Sur 0 -- -- 31
2020-01-06 14:00:00 11.7 4 Sudeste 13 Este 0 -- -- 31
2020-01-06 13:00:00 9.1 4 Sudeste 11 Este 0 -- -- 41
2020-01-06 12:00:00 4 3 Sudeste 14 Nordeste 0 -- -- 53
2020-01-06 11:00:00 0.1 3 Este 8 Sudeste 0 -- -- 72
2020-01-06 10:00:00 -2.9 2 Sudeste 5 Sudeste 0 -- -- 83